Time;durP1;ratioP1;P1;durP2;ratioP2;P2;SDS_P1;SDS_P2;PMS_P1;PMS_P2;Temp;Humidity;BMP_temperature;BMP_pressure;BME280_temperature;BME280_humidity;BME280_pressure;Samples;Min_cycle;Max_cycle;Signal;HPM_P1;HPM_P2
2021/08/07 00:01:37;;;;;;;4.47;1.98;;;;;;;13.73;84.04;98445.50;4991990;28;20448;-61
2021/08/07 00:04:03;;;;;;;4.90;2.03;;;;;;;13.69;83.58;98445.22;4993503;28;20026;-60
2021/08/07 00:06:28;;;;;;;4.40;2.00;;;;;;;13.67;84.48;98441.22;4992988;28;20034;-61
2021/08/07 00:08:54;;;;;;;4.22;2.10;;;;;;;13.63;84.37;98440.16;4993273;28;20082;-60
2021/08/07 00:11:19;;;;;;;4.80;2.72;;;;;;;13.52;84.49;98445.63;4993280;28;20038;-60
2021/08/07 00:13:45;;;;;;;4.40;2.20;;;;;;;13.52;84.59;98442.94;4993575;28;20029;-60
2021/08/07 00:16:13;;;;;;;6.82;2.20;;;;;;;13.55;84.84;98444.25;4993004;28;20057;-60
2021/08/07 00:18:40;;;;;;;3.80;1.80;;;;;;;13.50;84.06;98439.72;4993402;28;20137;-60
2021/08/07 00:21:05;;;;;;;3.42;1.75;;;;;;;13.46;84.41;98435.19;4993311;28;20070;-61
2021/08/07 00:23:30;;;;;;;5.88;2.22;;;;;;;13.43;84.82;98436.56;4993571;28;20097;-60
2021/08/07 00:25:56;;;;;;;8.30;2.40;;;;;;;13.27;85.17;98445.81;4993071;28;20377;-61
2021/08/07 00:28:21;;;;;;;5.20;2.15;;;;;;;13.00;86.42;98438.94;4993418;28;20026;-60
2021/08/07 00:30:47;;;;;;;6.30;2.30;;;;;;;12.88;86.93;98447.34;4992905;28;20039;-61
2021/08/07 00:33:12;;;;;;;9.57;2.25;;;;;;;12.89;87.26;98448.13;4991360;28;20535;-61
2021/08/07 00:35:38;;;;;;;4.15;2.28;;;;;;;12.69;88.17;98449.03;4992816;28;20058;-60
2021/08/07 00:38:03;;;;;;;4.13;2.03;;;;;;;12.65;88.25;98450.66;4993220;28;20030;-61
2021/08/07 00:40:28;;;;;;;6.10;2.50;;;;;;;12.62;88.67;98446.63;4992790;28;20034;-60
2021/08/07 00:42:54;;;;;;;3.58;2.20;;;;;;;12.59;89.13;98443.69;4991981;28;20030;-60
2021/08/07 00:45:19;;;;;;;7.53;2.00;;;;;;;12.69;88.96;98441.75;4992856;28;20073;-61
2021/08/07 00:47:45;;;;;;;8.57;2.47;;;;;;;12.68;88.67;98448.22;4993185;28;20092;-60
2021/08/07 00:50:11;;;;;;;3.67;2.38;;;;;;;12.61;88.24;98450.41;4992605;28;20096;-61
2021/08/07 00:52:36;;;;;;;4.28;2.30;;;;;;;12.53;88.93;98453.66;4993379;28;20113;-60
2021/08/07 00:55:03;;;;;;;4.47;2.25;;;;;;;12.60;89.16;98454.16;4975283;28;20531;-61
2021/08/07 00:57:29;;;;;;;4.53;2.28;;;;;;;12.62;88.73;98451.22;4993157;28;20027;-60
2021/08/07 00:59:54;;;;;;;7.20;2.67;;;;;;;12.64;88.78;98447.16;4991890;28;20384;-60
2021/08/07 01:02:20;;;;;;;9.10;2.50;;;;;;;12.62;89.05;98449.31;4992549;28;20034;-61
2021/08/07 01:05:09;;;;;;;4.03;2.20;;;;;;;12.64;88.42;98443.69;4992866;28;20034;-61
2021/08/07 01:08:03;;;;;;;5.57;2.10;;;;;;;12.53;88.46;98442.91;4994103;28;20062;-60
2021/08/07 01:11:14;;;;;;;4.15;2.58;;;;;;;12.39;89.51;98445.38;4995108;28;20038;-61
2021/08/07 01:13:45;;;;;;;4.22;2.30;;;;;;;12.22;90.41;98442.97;5002765;28;20109;-61
2021/08/07 01:16:16;;;;;;;;;;;;;;;12.25;90.91;98431.69;4997825;28;20044;-61
2021/08/07 01:18:42;;;;;;;6.55;2.63;;;;;;;12.28;90.58;98444.59;5004596;28;19953;-61
2021/08/07 01:21:08;;;;;;;6.22;2.45;;;;;;;12.38;90.27;98437.56;4978688;28;20039;-61
2021/08/07 01:23:56;;;;;;;6.50;2.53;;;;;;;12.46;89.42;98434.34;4995132;28;20024;-61
2021/08/07 01:26:32;;;;;;;5.50;2.50;;;;;;;12.55;89.07;98435.34;4996134;28;20058;-61
2021/08/07 01:28:58;;;;;;;7.10;2.58;;;;;;;12.68;88.83;98429.41;4996352;28;20034;-61
2021/08/07 01:31:24;;;;;;;12.75;2.70;;;;;;;12.72;87.79;98426.97;4978543;28;20038;-61
2021/08/07 01:33:49;;;;;;;4.05;2.40;;;;;;;12.52;87.82;98428.66;4978667;28;20024;-61
2021/08/07 01:36:15;;;;;;;6.13;2.17;;;;;;;12.38;87.84;98433.03;4995790;28;20049;-61
2021/08/07 01:38:42;;;;;;;4.88;2.58;;;;;;;12.14;89.40;98422.06;4996427;28;20496;-61
2021/08/07 01:41:18;;;;;;;6.05;2.53;;;;;;;12.12;89.92;98423.41;4995747;28;20066;-61
2021/08/07 01:43:44;;;;;;;6.47;2.50;;;;;;;12.02;89.98;98422.34;4996168;28;20038;-61
2021/08/07 01:46:13;;;;;;;3.38;2.38;;;;;;;12.01;90.12;98417.25;4995535;28;20039;-61
2021/08/07 01:49:00;;;;;;;6.80;2.50;;;;;;;11.99;91.10;98411.34;4995999;28;20046;-61
2021/08/07 01:51:29;;;;;;;5.32;2.60;;;;;;;11.94;91.19;98400.63;4994287;28;20045;-61
2021/08/07 01:53:54;;;;;;;4.82;2.22;;;;;;;11.97;91.19;98416.19;4994680;28;20492;-61
2021/08/07 01:56:28;;;;;;;6.82;2.35;;;;;;;12.07;90.75;98422.31;4978028;28;20172;-61
2021/08/07 01:58:58;;;;;;;4.97;2.40;;;;;;;12.20;89.90;98420.97;4979198;28;20030;-61
2021/08/07 02:01:24;;;;;;;;;;;;;;;12.25;89.82;98417.47;4995918;28;20481;-61
2021/08/07 02:03:50;;;;;;;3.78;2.13;;;;;;;12.29;89.35;98413.16;4995921;28;19922;-61
2021/08/07 02:06:15;;;;;;;10.25;2.25;;;;;;;12.32;89.22;98417.19;4994346;28;20361;-61
2021/08/07 02:08:40;;;;;;;4.65;2.35;;;;;;;12.24;89.32;98405.91;4995525;28;20038;-61
2021/08/07 02:11:06;;;;;;;3.80;2.17;;;;;;;12.20;88.80;98410.22;4977797;28;20141;-61
2021/08/07 02:13:32;;;;;;;11.50;2.60;;;;;;;12.15;89.23;98402.16;4995881;28;20023;-61
2021/08/07 02:15:58;;;;;;;5.50;2.20;;;;;;;11.94;90.75;98405.97;4977816;28;20500;-61
2021/08/07 02:18:25;;;;;;;5.95;2.83;;;;;;;12.09;90.68;98403.28;4993952;28;20027;-61
2021/08/07 02:20:50;;;;;;;4.38;2.25;;;;;;;12.13;90.89;98395.47;4993884;28;20045;-61
2021/08/07 02:23:16;;;;;;;5.10;2.70;;;;;;;12.14;91.12;98395.19;4994200;28;20402;-61
2021/08/07 02:25:42;;;;;;;3.97;2.67;;;;;;;12.27;90.71;98394.59;4994556;28;20041;-61
2021/08/07 02:28:09;;;;;;;4.97;2.50;;;;;;;12.44;89.91;98394.28;4977889;28;20060;-61
2021/08/07 02:30:34;;;;;;;4.72;2.30;;;;;;;12.49;89.64;98396.16;4993582;28;20034;-61
2021/08/07 02:33:00;;;;;;;5.95;2.60;;;;;;;12.56;89.75;98396.66;4993714;28;20077;-61
2021/08/07 02:35:25;;;;;;;5.57;2.35;;;;;;;12.52;89.75;98401.78;4993608;28;20035;-61
2021/08/07 02:37:50;;;;;;;5.43;2.20;;;;;;;12.49;89.75;98399.66;4993974;28;20022;-61
2021/08/07 02:40:16;;;;;;;8.00;2.75;;;;;;;12.48;89.01;98392.66;4977391;28;20030;-61
2021/08/07 02:42:42;;;;;;;4.10;2.20;;;;;;;12.26;89.39;98395.69;4977807;28;20453;-61
2021/08/07 02:45:08;;;;;;;4.28;2.30;;;;;;;12.28;90.60;98396.25;4994566;28;20026;-61
2021/08/07 02:47:33;;;;;;;4.15;2.40;;;;;;;12.11;89.54;98392.25;4994942;28;20026;-61
2021/08/07 02:49:59;;;;;;;6.07;2.40;;;;;;;11.99;90.17;98384.50;4993794;28;20034;-61
2021/08/07 02:52:25;;;;;;;5.20;2.50;;;;;;;11.86;90.84;98378.59;4977046;28;20045;-61
2021/08/07 02:54:50;;;;;;;9.25;2.45;;;;;;;11.79;90.79;98372.69;4994855;28;20385;-61
2021/08/07 02:57:16;;;;;;;4.53;2.50;;;;;;;11.75;90.90;98366.22;4994422;28;20035;-61
2021/08/07 02:59:41;;;;;;;7.30;2.90;;;;;;;11.66;91.28;98367.88;4994710;28;20031;-61
2021/08/07 03:02:07;;;;;;;4.03;2.47;;;;;;;11.72;91.68;98356.03;4993172;28;20552;-61
2021/08/07 03:04:33;;;;;;;7.35;2.65;;;;;;;11.80;91.80;98355.47;4994734;28;20026;-61
2021/08/07 03:06:58;;;;;;;7.70;2.85;;;;;;;11.75;91.70;98349.31;4992844;28;20034;-62
2021/08/07 03:09:24;;;;;;;5.47;2.85;;;;;;;11.77;91.68;98347.97;4993243;28;20030;-61
2021/08/07 03:11:49;;;;;;;4.57;2.60;;;;;;;11.69;92.14;98345.84;4993948;28;20038;-61
2021/08/07 03:14:15;;;;;;;5.65;2.78;;;;;;;11.72;92.29;98349.88;4994642;28;20077;-61
2021/08/07 03:16:40;;;;;;;7.97;2.88;;;;;;;11.74;92.60;98340.47;4994177;28;20030;-61
2021/08/07 03:19:06;;;;;;;5.85;3.05;;;;;;;11.75;92.36;98350.13;4994495;28;20084;-61
2021/08/07 03:21:31;;;;;;;5.13;3.13;;;;;;;11.75;92.11;98341.28;4994029;28;20092;-61
2021/08/07 03:23:56;;;;;;;6.55;3.17;;;;;;;11.74;91.69;98348.53;4994291;28;20114;-61
2021/08/07 03:26:23;;;;;;;5.00;3.25;;;;;;;11.74;91.87;98348.53;4993836;28;20034;-61
2021/08/07 03:28:49;;;;;;;8.27;3.53;;;;;;;11.62;91.69;98348.00;4994315;28;20022;-61
2021/08/07 03:31:14;;;;;;;7.07;3.17;;;;;;;11.62;92.19;98348.00;4993119;28;20038;-61
2021/08/07 03:33:40;;;;;;;16.38;4.05;;;;;;;11.61;91.93;98357.16;4992939;28;20026;-61
2021/08/07 03:36:05;;;;;;;6.10;3.17;;;;;;;11.55;91.83;98361.69;4993656;28;20038;-61
2021/08/07 03:38:31;;;;;;;7.82;3.13;;;;;;;11.55;91.81;98360.88;4994053;28;20088;-61
2021/08/07 03:40:56;;;;;;;7.72;3.95;;;;;;;11.52;92.23;98362.22;4993695;28;20042;-61
2021/08/07 03:43:22;;;;;;;5.90;3.08;;;;;;;11.52;91.92;98356.06;4994027;28;20022;-61
2021/08/07 03:45:47;;;;;;;6.32;3.00;;;;;;;11.49;92.33;98357.41;4993663;28;20042;-61
2021/08/07 03:48:13;;;;;;;7.97;3.47;;;;;;;11.55;93.01;98352.84;4993880;28;20054;-61
2021/08/07 03:50:38;;;;;;;4.75;3.10;;;;;;;11.59;92.77;98353.91;4993392;28;20030;-61
2021/08/07 03:53:04;;;;;;;6.07;3.17;;;;;;;11.74;92.48;98353.91;4993887;28;20038;-61
2021/08/07 03:55:29;;;;;;;4.75;3.00;;;;;;;11.73;92.10;98352.31;4993333;28;20034;-61
2021/08/07 03:57:58;;;;;;;10.43;3.15;;;;;;;11.71;91.86;98357.13;4993867;28;20039;-61
2021/08/07 04:00:26;;;;;;;5.18;2.95;;;;;;;11.82;92.31;98350.66;4993496;28;20117;-61
2021/08/07 04:02:51;;;;;;;4.68;3.10;;;;;;;11.80;91.56;98350.13;4993842;28;20026;-61
2021/08/07 04:05:17;;;;;;;6.88;3.15;;;;;;;11.93;92.55;98346.13;4993337;28;20022;-61
2021/08/07 04:07:42;;;;;;;8.00;2.97;;;;;;;11.97;91.02;98343.66;4993406;28;20038;-61
2021/08/07 04:10:08;;;;;;;6.15;3.15;;;;;;;12.02;90.87;98349.81;4993187;28;20385;-61
2021/08/07 04:12:34;;;;;;;6.13;2.90;;;;;;;12.01;90.45;98342.06;4993723;28;20028;-61
2021/08/07 04:14:59;;;;;;;6.78;2.88;;;;;;;11.99;90.55;98339.63;4993890;28;20035;-61
2021/08/07 04:17:25;;;;;;;8.82;3.15;;;;;;;12.17;90.96;98340.91;4993109;28;20042;-61
2021/08/07 04:19:50;;;;;;;8.85;3.05;;;;;;;12.25;90.92;98334.97;4993430;28;20384;-61
2021/08/07 04:22:15;;;;;;;6.88;2.78;;;;;;;12.40;90.85;98336.00;4992547;28;20053;-61
2021/08/07 04:24:41;;;;;;;5.90;2.72;;;;;;;12.50;90.65;98333.25;4992969;28;20022;-61
2021/08/07 04:27:06;;;;;;;6.28;2.80;;;;;;;12.67;89.98;98322.94;4991845;28;20042;-61
2021/08/07 04:29:32;;;;;;;7.13;3.00;;;;;;;12.79;89.34;98327.19;4993456;28;20030;-61
2021/08/07 04:31:57;;;;;;;4.20;2.85;;;;;;;13.06;87.89;98329.44;4992956;28;20432;-61
2021/08/07 04:34:22;;;;;;;7.97;3.00;;;;;;;13.09;86.75;98343.09;4993326;28;20389;-61
2021/08/07 04:36:48;;;;;;;3.53;2.28;;;;;;;13.06;87.35;98345.56;4992779;28;20042;-61
2021/08/07 04:39:14;;;;;;;5.43;2.65;;;;;;;12.92;88.80;98348.06;4993243;28;20038;-61
2021/08/07 04:41:40;;;;;;;5.07;2.58;;;;;;;12.98;88.17;98343.44;4993281;28;20043;-61
2021/08/07 04:44:06;;;;;;;5.68;2.30;;;;;;;13.02;88.97;98334.56;4997280;28;20350;-61
2021/08/07 04:46:31;;;;;;;11.63;2.65;;;;;;;13.16;88.52;98338.22;4996876;28;20034;-61
2021/08/07 04:48:56;;;;;;;3.55;2.30;;;;;;;13.42;87.70;98338.03;4997247;28;20025;-61
2021/08/07 04:51:22;;;;;;;7.45;2.22;;;;;;;13.78;85.85;98343.91;4996790;28;20030;-61
2021/08/07 04:53:47;;;;;;;5.68;2.30;;;;;;;13.98;85.30;98340.19;4997045;28;20026;-61
2021/08/07 04:56:13;;;;;;;4.93;2.63;;;;;;;14.79;82.21;98329.50;4996913;28;20061;-61
2021/08/07 04:58:38;;;;;;;4.10;2.00;;;;;;;15.28;79.03;98317.41;4997201;28;20065;-61
2021/08/07 05:01:03;;;;;;;4.60;2.20;;;;;;;14.92;79.86;98319.06;4996761;28;20085;-61
2021/08/07 05:03:29;;;;;;;7.00;2.28;;;;;;;15.66;76.94;98328.09;4995962;28;20034;-61
2021/08/07 05:05:54;;;;;;;4.82;2.05;;;;;;;16.36;73.97;98328.97;4996581;28;20053;-61
2021/08/07 05:08:20;;;;;;;6.63;2.45;;;;;;;15.60;77.44;98323.91;4996566;28;20496;-61
2021/08/07 05:10:45;;;;;;;5.85;2.08;;;;;;;15.57;77.36;98323.69;4996514;28;20035;-61
2021/08/07 05:13:11;;;;;;;4.70;2.00;;;;;;;15.56;77.78;98322.88;4996906;28;20022;-61
2021/08/07 05:15:36;;;;;;;3.80;2.10;;;;;;;15.30;78.29;98326.03;4996509;28;20031;-62
2021/08/07 05:18:05;;;;;;;4.80;2.13;;;;;;;15.59;77.37;98322.28;4995419;28;20033;-61
2021/08/07 05:20:30;;;;;;;6.35;2.10;;;;;;;15.14;79.40;98324.66;4996385;28;20031;-61
2021/08/07 05:22:55;;;;;;;5.32;2.30;;;;;;;14.64;81.49;98329.72;4995366;28;20462;-61
2021/08/07 05:25:21;;;;;;;4.95;2.20;;;;;;;14.37;82.96;98330.31;4996453;28;20042;-61
2021/08/07 05:27:46;;;;;;;11.13;2.40;;;;;;;14.11;84.60;98333.31;4995406;28;20473;-61
2021/08/07 05:30:12;;;;;;;4.38;2.10;;;;;;;14.29;84.16;98333.66;4996265;28;20362;-61
2021/08/07 05:32:37;;;;;;;6.82;2.65;;;;;;;14.46;83.51;98326.69;4996573;28;20373;-61
2021/08/07 05:35:03;;;;;;;7.85;2.22;;;;;;;14.41;84.40;98329.44;4995840;28;20089;-61
2021/08/07 05:37:30;;;;;;;8.50;2.33;;;;;;;14.51;83.52;98319.63;4996259;28;20065;-61
2021/08/07 05:39:57;;;;;;;8.38;2.30;;;;;;;14.69;83.41;98326.16;4996275;28;20041;-61
2021/08/07 05:42:23;;;;;;;4.35;2.10;;;;;;;14.86;82.80;98327.22;4995817;28;20042;-61
2021/08/07 05:44:48;;;;;;;4.90;1.98;;;;;;;14.77;82.96;98328.19;4996241;28;20388;-61
2021/08/07 05:47:14;;;;;;;3.95;2.20;;;;;;;14.81;83.43;98330.00;4995691;28;20046;-62
2021/08/07 05:49:39;;;;;;;8.00;2.38;;;;;;;15.07;82.49;98326.91;4994808;28;20033;-61
2021/08/07 05:52:04;;;;;;;6.30;2.15;;;;;;;15.23;81.95;98320.19;4995665;28;20034;-62
2021/08/07 05:54:30;;;;;;;4.38;2.10;;;;;;;15.39;81.57;98322.63;4995563;28;20023;-61
2021/08/07 05:56:55;;;;;;;7.43;2.40;;;;;;;15.20;81.59;98315.41;4995527;28;20047;-61
2021/08/07 05:59:21;;;;;;;8.50;2.28;;;;;;;15.42;81.65;98320.13;4996028;28;20524;-61
2021/08/07 06:01:46;;;;;;;5.00;2.00;;;;;;;15.47;81.28;98313.84;4977889;28;20030;-61
2021/08/07 06:04:12;;;;;;;4.68;2.17;;;;;;;15.60;80.96;98310.41;4994553;28;20034;-61
2021/08/07 06:06:37;;;;;;;6.72;2.17;;;;;;;16.02;79.33;98311.25;4995367;28;20465;-61
2021/08/07 06:09:02;;;;;;;8.07;2.20;;;;;;;16.41;77.25;98319.94;4994466;28;20039;-61
2021/08/07 06:11:28;;;;;;;7.00;2.30;;;;;;;16.16;77.52;98319.38;4995430;28;20047;-62
2021/08/07 06:13:53;;;;;;;3.00;2.10;;;;;;;15.82;79.03;98319.75;4995804;28;20330;-61
2021/08/07 06:16:19;;;;;;;7.10;2.22;;;;;;;16.01;79.17;98315.06;4994101;28;20400;-61
2021/08/07 06:18:44;;;;;;;5.82;1.98;;;;;;;16.22;77.41;98311.94;4995357;28;20380;-61
2021/08/07 06:21:10;;;;;;;7.65;2.42;;;;;;;16.22;78.36;98317.34;4994976;28;20041;-61
2021/08/07 06:23:35;;;;;;;4.13;2.17;;;;;;;16.25;77.77;98317.56;4995217;28;20023;-62
2021/08/07 06:26:00;;;;;;;6.05;2.10;;;;;;;16.51;76.56;98315.13;4995150;28;20049;-61
2021/08/07 06:28:26;;;;;;;6.93;2.10;;;;;;;16.88;75.25;98317.88;4995584;28;20018;-62
2021/08/07 06:30:51;;;;;;;8.15;2.08;;;;;;;16.49;76.41;98322.72;4993648;28;20034;-61
2021/08/07 06:33:17;;;;;;;6.45;2.10;;;;;;;16.63;76.64;98321.91;4995452;28;20365;-61
2021/08/07 06:35:42;;;;;;;5.68;2.15;;;;;;;16.84;75.97;98323.06;4990974;28;20051;-62
2021/08/07 06:38:08;;;;;;;5.57;2.22;;;;;;;16.87;76.04;98322.47;4984136;28;20027;-61
2021/08/07 06:40:35;;;;;;;5.18;2.22;;;;;;;16.50;78.05;98318.94;4994492;28;20038;-62
2021/08/07 06:43:00;;;;;;;9.32;2.30;;;;;;;16.81;76.01;98323.69;4994752;28;20022;-61
2021/08/07 06:45:26;;;;;;;3.92;2.05;;;;;;;16.38;77.77;98318.66;4993143;28;20049;-61
2021/08/07 06:47:51;;;;;;;8.55;2.30;;;;;;;15.68;79.19;98325.13;4995122;28;20125;-61
2021/08/07 06:50:17;;;;;;;6.57;2.42;;;;;;;15.73;79.19;98325.84;4992953;28;20504;-61
2021/08/07 06:52:43;;;;;;;4.07;2.10;;;;;;;15.88;79.20;98321.28;4994732;28;20034;-61
2021/08/07 06:55:09;;;;;;;10.43;2.28;;;;;;;15.82;79.14;98327.84;4993118;28;20034;-61
2021/08/07 06:57:34;;;;;;;12.25;2.88;;;;;;;15.55;79.95;98329.41;4994887;28;20362;-61
2021/08/07 07:00:01;;;;;;;12.55;2.53;;;;;;;15.65;79.90;98325.69;4994818;28;20034;-61
2021/08/07 07:02:27;;;;;;;11.60;2.40;;;;;;;15.69;80.04;98318.59;4992853;28;20035;-61
2021/08/07 07:04:53;;;;;;;6.60;2.13;;;;;;;15.69;79.62;98315.91;4994643;28;20025;-61
2021/08/07 07:07:18;;;;;;;6.70;2.20;;;;;;;15.76;79.59;98315.56;4992841;28;20050;-61
2021/08/07 07:09:43;;;;;;;5.25;2.22;;;;;;;15.83;79.44;98321.38;4994778;28;20120;-61
2021/08/07 07:12:09;;;;;;;7.43;2.30;;;;;;;15.91;79.14;98315.25;4994224;28;20112;-61
2021/08/07 07:14:34;;;;;;;3.72;2.00;;;;;;;15.92;79.07;98316.84;4994583;28;20436;-61
2021/08/07 07:17:00;;;;;;;6.85;2.22;;;;;;;15.95;79.48;98319.78;4994310;28;20473;-61
2021/08/07 07:19:29;;;;;;;7.65;2.33;;;;;;;16.05;78.94;98321.47;4994332;28;20026;-62
2021/08/07 07:21:55;;;;;;;11.85;2.38;;;;;;;16.12;78.64;98312.94;4993863;28;20442;-62
2021/08/07 07:24:20;;;;;;;7.20;2.30;;;;;;;16.35;78.38;98316.56;4994083;28;20023;-60
2021/08/07 07:26:46;;;;;;;7.75;2.28;;;;;;;16.87;76.34;98322.47;4993916;28;20057;-61
2021/08/07 07:29:11;;;;;;;8.85;2.40;;;;;;;17.06;76.30;98322.31;4994158;28;20381;-61
2021/08/07 07:31:36;;;;;;;6.95;2.30;;;;;;;17.19;75.84;98329.56;4992299;28;20489;-61
2021/08/07 07:34:02;;;;;;;6.22;2.38;;;;;;;17.40;74.57;98329.88;4993955;28;20047;-61
2021/08/07 07:36:27;;;;;;;5.22;1.90;;;;;;;17.58;74.21;98328.06;4993762;28;20034;-61
2021/08/07 07:38:53;;;;;;;8.70;2.33;;;;;;;17.74;73.53;98320.34;4994312;28;20389;-61
2021/08/07 07:41:18;;;;;;;4.97;2.22;;;;;;;18.06;72.13;98324.66;4992694;28;20327;-61
2021/08/07 07:43:44;;;;;;;7.05;2.25;;;;;;;18.62;69.76;98319.53;4994085;28;20041;-61
2021/08/07 07:46:09;;;;;;;6.43;2.47;;;;;;;18.40;70.54;98327.78;4993620;28;20054;-61
2021/08/07 07:48:35;;;;;;;9.63;2.45;;;;;;;19.96;64.34;98316.81;4993952;28;20027;-61
2021/08/07 07:51:00;;;;;;;7.65;2.03;;;;;;;22.30;55.81;98324.16;4993471;28;20042;-61
2021/08/07 07:53:26;;;;;;;6.78;2.00;;;;;;;22.70;56.74;98311.72;4993797;28;20069;-60
2021/08/07 07:55:51;;;;;;;5.50;1.90;;;;;;;22.40;55.23;98320.97;4993850;28;20030;-61
2021/08/07 07:58:16;;;;;;;7.00;2.10;;;;;;;22.46;55.71;98318.78;4992619;28;20034;-60
2021/08/07 08:00:42;;;;;;;8.57;1.92;;;;;;;21.95;57.18;98315.59;4992180;28;20042;-60
2021/08/07 08:03:07;;;;;;;2.42;1.48;;;;;;;22.33;55.66;98304.34;4993743;28;20076;-60
2021/08/07 08:05:33;;;;;;;7.15;1.90;;;;;;;21.74;57.59;98313.75;4993589;28;20489;-60
2021/08/07 08:07:59;;;;;;;10.13;1.80;;;;;;;21.60;56.74;98312.47;4993574;28;20445;-60
2021/08/07 08:10:24;;;;;;;6.90;2.20;;;;;;;20.82;59.45;98314.75;4991655;28;20070;-60
2021/08/07 08:12:50;;;;;;;7.55;2.10;;;;;;;22.12;56.06;98315.38;4993737;28;20034;-60
2021/08/07 08:15:15;;;;;;;6.55;2.42;;;;;;;21.68;57.05;98308.84;4992137;28;20018;-60
2021/08/07 08:17:40;;;;;;;6.93;2.13;;;;;;;20.36;60.33;98305.59;4993209;28;20022;-60
2021/08/07 08:20:07;;;;;;;7.28;2.10;;;;;;;20.02;62.79;98304.66;4993454;28;20049;-60
2021/08/07 08:22:33;;;;;;;5.35;1.98;;;;;;;20.68;61.29;98314.22;4993458;28;20058;-60
2021/08/07 08:24:58;;;;;;;10.57;1.92;;;;;;;20.01;62.62;98303.03;4993638;28;20248;-60
2021/08/07 08:27:24;;;;;;;8.57;2.20;;;;;;;19.29;64.68;98310.09;4993020;28;20122;-60
2021/08/07 08:29:49;;;;;;;6.15;1.95;;;;;;;19.36;64.32;98298.75;4993335;28;20046;-60
2021/08/07 08:32:15;;;;;;;7.50;1.90;;;;;;;19.20;64.92;98301.19;4993056;28;20044;-60
2021/08/07 08:34:40;;;;;;;8.07;2.33;;;;;;;19.00;65.56;98301.84;4975946;28;20023;-60
2021/08/07 08:37:06;;;;;;;6.90;2.05;;;;;;;19.00;64.79;98289.06;4991971;28;20060;-60
2021/08/07 08:39:32;;;;;;;11.30;3.42;;;;;;;19.72;63.32;98290.22;4993530;28;20026;-60
2021/08/07 08:41:58;;;;;;;8.18;2.00;;;;;;;18.92;65.07;98289.84;4991621;28;20038;-60
2021/08/07 08:44:23;;;;;;;9.00;2.20;;;;;;;18.75;64.27;98288.75;4992223;28;20106;-60
2021/08/07 08:46:49;;;;;;;6.00;1.90;;;;;;;18.86;63.64;98291.16;4991667;28;20396;-61
2021/08/07 08:49:15;;;;;;;10.32;2.35;;;;;;;19.59;62.37;98291.19;4975751;28;20784;-60
2021/08/07 08:51:41;;;;;;;8.77;1.90;;;;;;;20.65;59.31;98290.38;4992651;28;20046;-61
2021/08/07 08:54:06;;;;;;;7.25;1.90;;;;;;;20.38;59.76;98295.16;4992262;28;20027;-60
2021/08/07 08:56:34;;;;;;;7.25;2.30;;;;;;;20.58;58.67;98287.41;4991950;28;20393;-60
2021/08/07 08:59:02;;;;;;;6.68;2.20;;;;;;;20.10;59.64;98294.06;4993297;28;20030;-60
2021/08/07 09:01:27;;;;;;;8.27;2.20;;;;;;;20.52;58.78;98294.13;4992852;28;20057;-61
2021/08/07 09:03:52;;;;;;;5.55;1.95;;;;;;;20.14;59.68;98293.06;4976129;28;20385;-61
2021/08/07 09:06:18;;;;;;;6.25;1.90;;;;;;;20.23;59.30;98287.59;4975467;28;20042;-61
2021/08/07 09:08:57;;;;;;;7.45;1.70;;;;;;;20.35;58.62;98270.56;4993086;28;20042;-61
2021/08/07 09:11:23;;;;;;;7.53;2.00;;;;;;;19.10;61.48;98274.38;4992677;28;20042;-61
2021/08/07 09:13:48;;;;;;;7.60;2.03;;;;;;;19.72;60.04;98281.25;4993100;28;20019;-61
2021/08/07 09:16:14;;;;;;;5.30;1.92;;;;;;;20.02;58.38;98287.56;4992636;28;20511;-61
2021/08/07 09:18:40;;;;;;;8.93;2.17;;;;;;;19.96;59.66;98294.28;4993057;28;20022;-61
2021/08/07 09:21:24;;;;;;;10.27;2.42;;;;;;;19.39;61.17;98293.50;4992642;28;20051;-61
2021/08/07 09:23:49;;;;;;;4.32;1.60;;;;;;;18.79;62.34;98274.53;4993062;28;20033;-61
2021/08/07 09:26:17;;;;;;;8.60;2.22;;;;;;;19.23;61.91;98267.16;4975150;28;20039;-60
2021/08/07 09:28:44;;;;;;;8.52;2.03;;;;;;;19.71;60.79;98266.06;4994462;28;20388;-61
2021/08/07 09:31:09;;;;;;;9.10;2.05;;;;;;;20.28;58.12;98268.34;4994752;28;20034;-61
2021/08/07 09:33:36;;;;;;;10.20;2.42;;;;;;;19.94;57.92;98269.34;4996722;28;20038;-61
2021/08/07 09:36:02;;;;;;;7.93;2.00;;;;;;;20.08;58.20;98280.00;4995931;28;20489;-60
2021/08/07 09:38:30;;;;;;;10.30;2.40;;;;;;;20.13;58.03;98272.44;4996351;28;20033;-61
2021/08/07 09:40:58;;;;;;;12.80;2.20;;;;;;;20.18;57.46;98272.25;4995865;28;20073;-61
2021/08/07 09:43:31;;;;;;;11.02;2.00;;;;;;;19.78;59.18;98271.81;4996315;28;20539;-61
2021/08/07 09:46:06;;;;;;;9.95;2.10;;;;;;;20.10;57.53;98262.22;4994818;28;20034;-60
2021/08/07 09:48:36;;;;;;;9.15;2.00;;;;;;;20.90;55.38;98262.16;4996359;28;20023;-61
2021/08/07 09:51:24;;;;;;;10.48;2.30;;;;;;;20.84;55.79;98258.06;4995701;28;20125;-61
2021/08/07 09:54:14;;;;;;;9.55;2.92;;;;;;;21.47;53.83;98262.59;4993942;28;20062;-60
2021/08/07 09:56:53;;;;;;;9.40;2.38;;;;;;;20.73;55.77;98251.41;4995670;28;20038;-60
2021/08/07 09:59:20;;;;;;;4.30;1.60;;;;;;;20.77;55.80;98244.16;4995987;28;20035;-60
2021/08/07 10:01:47;;;;;;;9.98;2.17;;;;;;;21.15;54.13;98234.22;4995175;28;20042;-59
2021/08/07 10:04:13;;;;;;;8.35;2.60;;;;;;;21.54;54.51;98246.44;4995780;28;20162;-59
2021/08/07 10:06:42;;;;;;;6.47;2.83;;;;;;;21.56;53.24;98244.19;4994137;28;20493;-61
2021/08/07 10:09:07;;;;;;;7.43;2.08;;;;;;;21.47;53.32;98251.69;4994334;28;20077;-60
2021/08/07 10:11:33;;;;;;;7.68;2.28;;;;;;;20.58;55.70;98255.53;4995111;28;20070;-61
2021/08/07 10:13:59;;;;;;;9.30;2.10;;;;;;;20.66;56.36;98241.03;4995484;28;20022;-60
2021/08/07 10:16:25;;;;;;;7.30;2.13;;;;;;;21.22;54.38;98237.97;4977588;28;20112;-62
2021/08/07 10:18:51;;;;;;;6.07;1.95;;;;;;;21.17;54.83;98238.19;4995413;28;20037;-61
2021/08/07 10:21:16;;;;;;;5.97;1.70;;;;;;;20.50;56.05;98231.06;4995207;28;20048;-61
2021/08/07 10:23:42;;;;;;;5.75;1.98;;;;;;;20.54;55.74;98224.63;4995547;28;20432;-61
2021/08/07 10:26:09;;;;;;;7.57;1.90;;;;;;;20.56;57.42;98232.47;4993804;28;20404;-61
2021/08/07 10:28:35;;;;;;;7.45;2.10;;;;;;;21.00;54.44;98230.19;4995307;28;20102;-61
2021/08/07 10:31:01;;;;;;;7.65;2.17;;;;;;;20.55;56.14;98222.75;4994820;28;20134;-61
2021/08/07 10:33:27;;;;;;;6.53;1.90;;;;;;;20.60;55.77;98230.69;4994165;28;20057;-60
2021/08/07 10:35:53;;;;;;;9.32;2.22;;;;;;;21.18;55.00;98226.16;4993701;28;20496;-61
2021/08/07 10:38:18;;;;;;;9.18;2.10;;;;;;;21.37;53.62;98224.81;4995294;28;20050;-61
2021/08/07 10:40:44;;;;;;;6.15;2.13;;;;;;;21.66;53.87;98227.38;4993244;28;20401;-61
2021/08/07 10:43:10;;;;;;;6.93;2.08;;;;;;;20.95;54.89;98211.34;4994997;28;20385;-61
2021/08/07 10:45:39;;;;;;;6.88;1.75;;;;;;;21.21;54.90;98213.78;4977122;28;20058;-60
2021/08/07 10:48:05;;;;;;;9.77;2.20;;;;;;;21.88;53.21;98211.72;4995125;28;20585;-61
2021/08/07 10:50:31;;;;;;;8.35;2.17;;;;;;;21.56;53.05;98207.97;4994678;28;20042;-61
2021/08/07 10:52:58;;;;;;;8.82;1.98;;;;;;;22.01;52.75;98209.78;4995099;28;20109;-61
2021/08/07 10:55:43;;;;;;;6.55;2.50;;;;;;;22.63;50.03;98211.25;4994633;28;20103;-60
2021/08/07 10:58:30;;;;;;;8.63;2.15;;;;;;;21.67;52.15;98220.03;4994705;28;20034;-61
2021/08/07 11:01:05;;;;;;;9.13;2.00;;;;;;;22.16;50.59;98212.56;4993230;28;20034;-61
2021/08/07 11:03:33;;;;;;;8.27;2.22;;;;;;;21.91;50.75;98211.03;4978608;28;20452;-61
2021/08/07 11:05:59;;;;;;;6.50;2.38;;;;;;;21.54;52.98;98224.63;4994465;28;20114;-61
2021/08/07 11:08:24;;;;;;;6.18;1.90;;;;;;;22.01;51.71;98210.56;4994594;28;20370;-61
2021/08/07 11:10:50;;;;;;;6.93;2.10;;;;;;;20.88;52.63;98199.03;4977044;28;20493;-60
2021/08/07 11:13:23;;;;;;;8.98;1.80;;;;;;;20.99;53.25;98206.78;4977219;28;20034;-60
2021/08/07 11:15:48;;;;;;;5.57;1.63;;;;;;;21.50;51.46;98194.56;4994189;28;20026;-60
2021/08/07 11:18:24;;;;;;;7.03;1.75;;;;;;;21.69;52.32;98194.00;4977092;28;20032;-60
2021/08/07 11:20:49;;;;;;;6.75;2.05;;;;;;;22.55;49.22;98191.13;4992919;28;20146;-60
2021/08/07 11:23:15;;;;;;;5.57;1.92;;;;;;;21.62;52.06;98199.22;4994482;28;20027;-62
2021/08/07 11:25:48;;;;;;;5.43;1.83;;;;;;;22.26;51.13;98207.81;4993873;28;20034;-61
2021/08/07 11:28:13;;;;;;;5.80;1.90;;;;;;;21.69;51.67;98202.19;4994441;28;20038;-61
2021/08/07 11:30:39;;;;;;;5.72;1.83;;;;;;;21.94;50.38;98200.25;4976567;28;20413;-62
2021/08/07 11:33:06;;;;;;;7.22;2.47;;;;;;;21.48;50.67;98198.75;4994325;28;20038;-61